Terminal Aerodrome Forecast
Issued by NWS Columbia, SC

Home | Current Version | Previous Version | Text Only | Print | Product List | Glossary On
Versions: 1 2 3 4 5 6 7 8 9 10 11 12 13 14 15 16 17 18 19 20 21 22 23 24 25 26 27 28 29
748
FTUS42 KCAE 211941 AAC
TAFCAE
TAF AMD
KCAE 211941Z 2120/2218 20009KT 3SM TSRA BR OVC025CB
      TEMPO 2120/2124 1SM TSRA BKN008CB
     FM220000 20007KT 2SM BR VCSH BKN004
     FM220700 21006KT 1SM TSRA BR OVC004CB
     FM221500 22012KT 4SM BR OVC015=

USA.gov is the U.S. government's official web portal to all federal, state and local government web resources and services.